sensor_id;sensor_type;location;lat;lon;timestamp;P1;durP1;ratioP1;P2;durP2;ratioP2
29352;SDS011;16344;50.364;8.944;2023-01-04T00:00:03;17.95;;;7.60;;
29352;SDS011;16344;50.364;8.944;2023-01-04T00:02:29;14.63;;;7.93;;
29352;SDS011;16344;50.364;8.944;2023-01-04T00:04:55;19.67;;;8.15;;
29352;SDS011;16344;50.364;8.944;2023-01-04T00:07:21;20.33;;;7.75;;
29352;SDS011;16344;50.364;8.944;2023-01-04T00:09:46;24.23;;;8.15;;
29352;SDS011;16344;50.364;8.944;2023-01-04T00:12:12;22.30;;;8.40;;
29352;SDS011;16344;50.364;8.944;2023-01-04T00:14:37;20.70;;;7.95;;
29352;SDS011;16344;50.364;8.944;2023-01-04T00:17:03;19.67;;;7.53;;
29352;SDS011;16344;50.364;8.944;2023-01-04T00:19:28;24.05;;;8.32;;
29352;SDS011;16344;50.364;8.944;2023-01-04T00:21:54;24.00;;;7.40;;
29352;SDS011;16344;50.364;8.944;2023-01-04T00:24:19;23.80;;;8.18;;
29352;SDS011;16344;50.364;8.944;2023-01-04T00:26:45;23.02;;;10.50;;
29352;SDS011;16344;50.364;8.944;2023-01-04T00:29:11;17.23;;;8.85;;
29352;SDS011;16344;50.364;8.944;2023-01-04T00:31:37;18.73;;;8.82;;
29352;SDS011;16344;50.364;8.944;2023-01-04T00:34:03;16.10;;;8.40;;
29352;SDS011;16344;50.364;8.944;2023-01-04T00:36:30;22.08;;;8.07;;
29352;SDS011;16344;50.364;8.944;2023-01-04T00:38:57;23.50;;;9.20;;
29352;SDS011;16344;50.364;8.944;2023-01-04T00:41:42;20.58;;;7.97;;
29352;SDS011;16344;50.364;8.944;2023-01-04T00:44:12;22.10;;;7.90;;
29352;SDS011;16344;50.364;8.944;2023-01-04T00:46:39;25.92;;;8.50;;
29352;SDS011;16344;50.364;8.944;2023-01-04T00:49:05;17.83;;;7.82;;
29352;SDS011;16344;50.364;8.944;2023-01-04T00:51:33;15.40;;;7.88;;
29352;SDS011;16344;50.364;8.944;2023-01-04T00:54:00;22.38;;;8.68;;
29352;SDS011;16344;50.364;8.944;2023-01-04T00:56:27;20.90;;;7.72;;
29352;SDS011;16344;50.364;8.944;2023-01-04T00:58:54;14.30;;;7.30;;
29352;SDS011;16344;50.364;8.944;2023-01-04T01:01:24;16.80;;;7.55;;
29352;SDS011;16344;50.364;8.944;2023-01-04T01:03:57;24.73;;;7.82;;
29352;SDS011;16344;50.364;8.944;2023-01-04T01:06:25;27.45;;;7.65;;
29352;SDS011;16344;50.364;8.944;2023-01-04T01:08:51;17.83;;;7.75;;
29352;SDS011;16344;50.364;8.944;2023-01-04T01:11:17;26.02;;;7.05;;
29352;SDS011;16344;50.364;8.944;2023-01-04T01:13:44;20.45;;;6.72;;
29352;SDS011;16344;50.364;8.944;2023-01-04T01:16:11;19.92;;;8.10;;
29352;SDS011;16344;50.364;8.944;2023-01-04T01:18:40;14.38;;;6.78;;
29352;SDS011;16344;50.364;8.944;2023-01-04T01:21:08;15.73;;;7.65;;
29352;SDS011;16344;50.364;8.944;2023-01-04T01:23:35;16.65;;;7.25;;
29352;SDS011;16344;50.364;8.944;2023-01-04T01:26:02;17.80;;;6.75;;
29352;SDS011;16344;50.364;8.944;2023-01-04T01:28:30;21.85;;;6.72;;
29352;SDS011;16344;50.364;8.944;2023-01-04T01:30:57;17.52;;;6.55;;
29352;SDS011;16344;50.364;8.944;2023-01-04T01:33:24;13.40;;;7.10;;
29352;SDS011;16344;50.364;8.944;2023-01-04T01:35:50;22.60;;;6.65;;
29352;SDS011;16344;50.364;8.944;2023-01-04T01:38:16;20.60;;;6.97;;
29352;SDS011;16344;50.364;8.944;2023-01-04T01:40:42;17.75;;;6.40;;
29352;SDS011;16344;50.364;8.944;2023-01-04T01:43:18;16.42;;;6.22;;
29352;SDS011;16344;50.364;8.944;2023-01-04T01:45:46;14.00;;;6.53;;
29352;SDS011;16344;50.364;8.944;2023-01-04T01:48:17;20.17;;;7.00;;
29352;SDS011;16344;50.364;8.944;2023-01-04T01:50:55;19.23;;;6.95;;
29352;SDS011;16344;50.364;8.944;2023-01-04T01:53:25;12.73;;;6.53;;
29352;SDS011;16344;50.364;8.944;2023-01-04T01:55:53;23.92;;;6.65;;
29352;SDS011;16344;50.364;8.944;2023-01-04T01:58:27;25.75;;;7.00;;
29352;SDS011;16344;50.364;8.944;2023-01-04T02:00:56;24.73;;;7.47;;
29352;SDS011;16344;50.364;8.944;2023-01-04T02:03:25;17.38;;;6.43;;
29352;SDS011;16344;50.364;8.944;2023-01-04T02:05:55;16.25;;;6.93;;
29352;SDS011;16344;50.364;8.944;2023-01-04T02:08:24;14.82;;;7.45;;
29352;SDS011;16344;50.364;8.944;2023-01-04T02:10:50;15.25;;;7.03;;
29352;SDS011;16344;50.364;8.944;2023-01-04T02:13:20;22.58;;;6.78;;
29352;SDS011;16344;50.364;8.944;2023-01-04T02:18:26;15.95;;;6.05;;
29352;SDS011;16344;50.364;8.944;2023-01-04T02:21:01;22.55;;;7.47;;
29352;SDS011;16344;50.364;8.944;2023-01-04T02:29:48;23.85;;;6.88;;
29352;SDS011;16344;50.364;8.944;2023-01-04T02:32:38;15.77;;;5.68;;
29352;SDS011;16344;50.364;8.944;2023-01-04T02:35:14;18.35;;;6.53;;
29352;SDS011;16344;50.364;8.944;2023-01-04T02:37:56;22.38;;;7.07;;
29352;SDS011;16344;50.364;8.944;2023-01-04T02:43:25;15.18;;;6.22;;
29352;SDS011;16344;50.364;8.944;2023-01-04T02:46:15;13.25;;;5.43;;
29352;SDS011;16344;50.364;8.944;2023-01-04T02:48:46;14.77;;;5.38;;
29352;SDS011;16344;50.364;8.944;2023-01-04T02:51:32;14.45;;;5.78;;
29352;SDS011;16344;50.364;8.944;2023-01-04T02:54:00;17.10;;;5.30;;
29352;SDS011;16344;50.364;8.944;2023-01-04T02:59:28;21.30;;;6.88;;
29352;SDS011;16344;50.364;8.944;2023-01-04T03:05:29;15.60;;;6.85;;
29352;SDS011;16344;50.364;8.944;2023-01-04T03:11:15;15.95;;;6.30;;
29352;SDS011;16344;50.364;8.944;2023-01-04T03:14:03;17.83;;;6.43;;
29352;SDS011;16344;50.364;8.944;2023-01-04T03:16:37;16.80;;;6.82;;
29352;SDS011;16344;50.364;8.944;2023-01-04T03:19:05;22.38;;;8.10;;
29352;SDS011;16344;50.364;8.944;2023-01-04T03:21:33;18.73;;;7.95;;
29352;SDS011;16344;50.364;8.944;2023-01-04T03:24:01;14.80;;;7.53;;
29352;SDS011;16344;50.364;8.944;2023-01-04T03:26:50;21.65;;;7.68;;
29352;SDS011;16344;50.364;8.944;2023-01-04T03:29:38;17.77;;;8.55;;
29352;SDS011;16344;50.364;8.944;2023-01-04T03:32:49;20.10;;;8.48;;
29352;SDS011;16344;50.364;8.944;2023-01-04T03:35:47;20.30;;;8.98;;
29352;SDS011;16344;50.364;8.944;2023-01-04T03:41:28;18.08;;;8.55;;
29352;SDS011;16344;50.364;8.944;2023-01-04T03:44:20;18.90;;;8.40;;
29352;SDS011;16344;50.364;8.944;2023-01-04T03:47:26;15.80;;;8.95;;
29352;SDS011;16344;50.364;8.944;2023-01-04T03:50:28;28.50;;;9.25;;
29352;SDS011;16344;50.364;8.944;2023-01-04T03:52:58;17.38;;;7.47;;
29352;SDS011;16344;50.364;8.944;2023-01-04T03:55:25;27.30;;;8.57;;
29352;SDS011;16344;50.364;8.944;2023-01-04T03:57:54;16.25;;;9.05;;
29352;SDS011;16344;50.364;8.944;2023-01-04T04:00:20;26.10;;;10.10;;
29352;SDS011;16344;50.364;8.944;2023-01-04T04:02:46;24.35;;;10.10;;
29352;SDS011;16344;50.364;8.944;2023-01-04T04:05:14;26.27;;;10.68;;
29352;SDS011;16344;50.364;8.944;2023-01-04T04:08:04;26.15;;;10.70;;
29352;SDS011;16344;50.364;8.944;2023-01-04T04:10:48;29.00;;;11.38;;
29352;SDS011;16344;50.364;8.944;2023-01-04T04:13:14;24.17;;;12.02;;
29352;SDS011;16344;50.364;8.944;2023-01-04T04:15:40;20.40;;;11.70;;
29352;SDS011;16344;50.364;8.944;2023-01-04T04:18:05;19.20;;;11.02;;
29352;SDS011;16344;50.364;8.944;2023-01-04T04:20:31;28.58;;;11.93;;
29352;SDS011;16344;50.364;8.944;2023-01-04T04:22:57;22.85;;;11.82;;
29352;SDS011;16344;50.364;8.944;2023-01-04T04:25:22;31.42;;;11.77;;
29352;SDS011;16344;50.364;8.944;2023-01-04T04:27:48;22.55;;;10.77;;
29352;SDS011;16344;50.364;8.944;2023-01-04T04:30:13;27.48;;;10.30;;
29352;SDS011;16344;50.364;8.944;2023-01-04T04:32:39;20.92;;;10.60;;
29352;SDS011;16344;50.364;8.944;2023-01-04T04:35:05;25.75;;;10.68;;
29352;SDS011;16344;50.364;8.944;2023-01-04T04:37:30;19.73;;;10.05;;
29352;SDS011;16344;50.364;8.944;2023-01-04T04:39:58;18.83;;;8.95;;
29352;SDS011;16344;50.364;8.944;2023-01-04T04:42:23;23.35;;;9.88;;
29352;SDS011;16344;50.364;8.944;2023-01-04T04:44:49;24.95;;;9.90;;
29352;SDS011;16344;50.364;8.944;2023-01-04T04:47:14;19.33;;;7.72;;
29352;SDS011;16344;50.364;8.944;2023-01-04T04:49:40;22.63;;;8.65;;
29352;SDS011;16344;50.364;8.944;2023-01-04T04:52:05;27.17;;;9.05;;
29352;SDS011;16344;50.364;8.944;2023-01-04T04:54:31;21.80;;;8.70;;
29352;SDS011;16344;50.364;8.944;2023-01-04T04:56:56;23.73;;;8.95;;
29352;SDS011;16344;50.364;8.944;2023-01-04T04:59:22;18.58;;;8.43;;
29352;SDS011;16344;50.364;8.944;2023-01-04T05:01:47;22.60;;;8.27;;
29352;SDS011;16344;50.364;8.944;2023-01-04T05:04:13;21.55;;;8.45;;
29352;SDS011;16344;50.364;8.944;2023-01-04T05:06:44;18.00;;;8.45;;
29352;SDS011;16344;50.364;8.944;2023-01-04T05:09:14;14.38;;;7.47;;
29352;SDS011;16344;50.364;8.944;2023-01-04T05:11:40;22.60;;;7.63;;
29352;SDS011;16344;50.364;8.944;2023-01-04T05:14:24;20.75;;;8.48;;
29352;SDS011;16344;50.364;8.944;2023-01-04T05:16:50;17.40;;;7.03;;
29352;SDS011;16344;50.364;8.944;2023-01-04T05:19:16;12.93;;;6.45;;
29352;SDS011;16344;50.364;8.944;2023-01-04T05:21:41;19.17;;;7.18;;
29352;SDS011;16344;50.364;8.944;2023-01-04T05:24:08;17.55;;;6.72;;
29352;SDS011;16344;50.364;8.944;2023-01-04T05:26:35;16.35;;;6.32;;
29352;SDS011;16344;50.364;8.944;2023-01-04T05:29:01;14.95;;;6.38;;
29352;SDS011;16344;50.364;8.944;2023-01-04T05:31:26;17.17;;;6.47;;
29352;SDS011;16344;50.364;8.944;2023-01-04T05:33:52;17.45;;;6.65;;
29352;SDS011;16344;50.364;8.944;2023-01-04T05:36:17;25.58;;;6.25;;
29352;SDS011;16344;50.364;8.944;2023-01-04T05:38:43;19.35;;;6.30;;
29352;SDS011;16344;50.364;8.944;2023-01-04T05:41:08;18.08;;;5.25;;
29352;SDS011;16344;50.364;8.944;2023-01-04T05:43:52;16.02;;;6.30;;
29352;SDS011;16344;50.364;8.944;2023-01-04T05:46:18;14.43;;;5.72;;
29352;SDS011;16344;50.364;8.944;2023-01-04T05:48:43;14.68;;;5.32;;
29352;SDS011;16344;50.364;8.944;2023-01-04T05:51:09;17.05;;;6.53;;
29352;SDS011;16344;50.364;8.944;2023-01-04T05:53:34;14.55;;;6.43;;
29352;SDS011;16344;50.364;8.944;2023-01-04T05:56:00;12.45;;;5.47;;
29352;SDS011;16344;50.364;8.944;2023-01-04T05:58:25;16.20;;;6.45;;
29352;SDS011;16344;50.364;8.944;2023-01-04T06:00:51;15.23;;;6.68;;
29352;SDS011;16344;50.364;8.944;2023-01-04T06:03:17;14.90;;;6.15;;
29352;SDS011;16344;50.364;8.944;2023-01-04T06:05:47;16.73;;;6.00;;
29352;SDS011;16344;50.364;8.944;2023-01-04T06:08:13;11.43;;;6.10;;
29352;SDS011;16344;50.364;8.944;2023-01-04T06:10:39;19.33;;;5.93;;
29352;SDS011;16344;50.364;8.944;2023-01-04T06:13:04;17.67;;;6.65;;
29352;SDS011;16344;50.364;8.944;2023-01-04T06:15:30;14.35;;;6.03;;
29352;SDS011;16344;50.364;8.944;2023-01-04T06:17:55;15.73;;;7.53;;
29352;SDS011;16344;50.364;8.944;2023-01-04T06:20:21;17.50;;;6.28;;
29352;SDS011;16344;50.364;8.944;2023-01-04T06:22:47;16.70;;;6.18;;
29352;SDS011;16344;50.364;8.944;2023-01-04T06:25:12;13.98;;;6.15;;
29352;SDS011;16344;50.364;8.944;2023-01-04T06:27:38;21.95;;;7.13;;
29352;SDS011;16344;50.364;8.944;2023-01-04T06:30:04;26.77;;;7.30;;
29352;SDS011;16344;50.364;8.944;2023-01-04T06:32:30;22.67;;;7.95;;
29352;SDS011;16344;50.364;8.944;2023-01-04T06:34:55;15.68;;;7.18;;
29352;SDS011;16344;50.364;8.944;2023-01-04T06:37:21;22.75;;;8.18;;
29352;SDS011;16344;50.364;8.944;2023-01-04T06:39:46;18.73;;;7.85;;
29352;SDS011;16344;50.364;8.944;2023-01-04T06:42:12;20.50;;;8.95;;
29352;SDS011;16344;50.364;8.944;2023-01-04T06:44:56;23.05;;;7.93;;
29352;SDS011;16344;50.364;8.944;2023-01-04T06:47:21;21.92;;;8.40;;
29352;SDS011;16344;50.364;8.944;2023-01-04T06:49:47;18.15;;;9.13;;
29352;SDS011;16344;50.364;8.944;2023-01-04T06:52:12;21.55;;;8.82;;
29352;SDS011;16344;50.364;8.944;2023-01-04T06:54:38;23.20;;;8.45;;
29352;SDS011;16344;50.364;8.944;2023-01-04T06:57:03;24.33;;;9.82;;
29352;SDS011;16344;50.364;8.944;2023-01-04T06:59:29;34.35;;;16.23;;
29352;SDS011;16344;50.364;8.944;2023-01-04T07:01:55;26.50;;;12.27;;
29352;SDS011;16344;50.364;8.944;2023-01-04T07:04:20;23.08;;;11.07;;
29352;SDS011;16344;50.364;8.944;2023-01-04T07:06:45;24.10;;;9.80;;
29352;SDS011;16344;50.364;8.944;2023-01-04T07:09:11;22.00;;;10.70;;
29352;SDS011;16344;50.364;8.944;2023-01-04T07:11:36;18.65;;;9.90;;
29352;SDS011;16344;50.364;8.944;2023-01-04T07:14:02;25.83;;;9.98;;
29352;SDS011;16344;50.364;8.944;2023-01-04T07:16:27;32.33;;;10.57;;
29352;SDS011;16344;50.364;8.944;2023-01-04T07:18:53;24.33;;;10.15;;
29352;SDS011;16344;50.364;8.944;2023-01-04T07:21:18;33.47;;;14.85;;
29352;SDS011;16344;50.364;8.944;2023-01-04T07:23:44;25.48;;;12.40;;
29352;SDS011;16344;50.364;8.944;2023-01-04T07:26:09;27.42;;;11.90;;
29352;SDS011;16344;50.364;8.944;2023-01-04T07:28:35;24.60;;;11.93;;
29352;SDS011;16344;50.364;8.944;2023-01-04T07:31:19;24.73;;;11.13;;
29352;SDS011;16344;50.364;8.944;2023-01-04T07:33:47;22.20;;;12.40;;
29352;SDS011;16344;50.364;8.944;2023-01-04T07:36:13;25.08;;;12.15;;
29352;SDS011;16344;50.364;8.944;2023-01-04T07:38:39;24.98;;;12.85;;
29352;SDS011;16344;50.364;8.944;2023-01-04T07:41:04;21.88;;;12.70;;
29352;SDS011;16344;50.364;8.944;2023-01-04T07:43:30;28.90;;;13.40;;
29352;SDS011;16344;50.364;8.944;2023-01-04T07:45:55;25.10;;;12.52;;
29352;SDS011;16344;50.364;8.944;2023-01-04T07:48:21;23.65;;;12.68;;
29352;SDS011;16344;50.364;8.944;2023-01-04T07:50:46;30.20;;;12.50;;
29352;SDS011;16344;50.364;8.944;2023-01-04T07:53:13;22.83;;;12.13;;
29352;SDS011;16344;50.364;8.944;2023-01-04T07:55:39;25.05;;;11.55;;
29352;SDS011;16344;50.364;8.944;2023-01-04T07:58:04;24.15;;;10.68;;
29352;SDS011;16344;50.364;8.944;2023-01-04T08:00:30;22.25;;;11.13;;
29352;SDS011;16344;50.364;8.944;2023-01-04T08:02:55;25.23;;;12.07;;
29352;SDS011;16344;50.364;8.944;2023-01-04T08:05:21;29.23;;;11.60;;
29352;SDS011;16344;50.364;8.944;2023-01-04T08:07:48;21.75;;;10.85;;
29352;SDS011;16344;50.364;8.944;2023-01-04T08:10:14;20.55;;;10.60;;
29352;SDS011;16344;50.364;8.944;2023-01-04T08:12:39;29.27;;;11.77;;
29352;SDS011;16344;50.364;8.944;2023-01-04T08:15:05;31.00;;;11.30;;
29352;SDS011;16344;50.364;8.944;2023-01-04T08:17:31;27.05;;;10.65;;
29352;SDS011;16344;50.364;8.944;2023-01-04T08:19:56;22.10;;;10.50;;
29352;SDS011;16344;50.364;8.944;2023-01-04T08:22:22;24.17;;;11.80;;
29352;SDS011;16344;50.364;8.944;2023-01-04T08:24:47;23.83;;;10.60;;
29352;SDS011;16344;50.364;8.944;2023-01-04T08:27:13;22.00;;;9.82;;
29352;SDS011;16344;50.364;8.944;2023-01-04T08:29:39;16.75;;;9.60;;
29352;SDS011;16344;50.364;8.944;2023-01-04T08:32:05;19.23;;;9.75;;
29352;SDS011;16344;50.364;8.944;2023-01-04T08:34:31;17.83;;;9.75;;
29352;SDS011;16344;50.364;8.944;2023-01-04T08:36:57;16.17;;;9.63;;
29352;SDS011;16344;50.364;8.944;2023-01-04T08:39:23;23.10;;;10.00;;
29352;SDS011;16344;50.364;8.944;2023-01-04T08:41:48;20.77;;;9.48;;
29352;SDS011;16344;50.364;8.944;2023-01-04T08:44:18;21.92;;;10.10;;
29352;SDS011;16344;50.364;8.944;2023-01-04T08:46:48;20.70;;;9.27;;
29352;SDS011;16344;50.364;8.944;2023-01-04T08:49:15;21.77;;;9.15;;
29352;SDS011;16344;50.364;8.944;2023-01-04T08:51:41;19.60;;;9.25;;
29352;SDS011;16344;50.364;8.944;2023-01-04T08:54:07;18.48;;;9.60;;
29352;SDS011;16344;50.364;8.944;2023-01-04T08:56:33;21.98;;;9.77;;
29352;SDS011;16344;50.364;8.944;2023-01-04T08:58:59;21.27;;;9.40;;
29352;SDS011;16344;50.364;8.944;2023-01-04T09:01:24;16.35;;;8.90;;
29352;SDS011;16344;50.364;8.944;2023-01-04T09:03:50;18.70;;;9.35;;
29352;SDS011;16344;50.364;8.944;2023-01-04T09:06:16;20.85;;;9.32;;
29352;SDS011;16344;50.364;8.944;2023-01-04T09:08:42;18.33;;;9.43;;
29352;SDS011;16344;50.364;8.944;2023-01-04T09:11:12;24.73;;;10.05;;
29352;SDS011;16344;50.364;8.944;2023-01-04T09:13:41;19.85;;;9.52;;
29352;SDS011;16344;50.364;8.944;2023-01-04T09:16:09;16.40;;;8.02;;
29352;SDS011;16344;50.364;8.944;2023-01-04T09:18:36;22.20;;;9.18;;
29352;SDS011;16344;50.364;8.944;2023-01-04T09:21:04;18.20;;;8.57;;
29352;SDS011;16344;50.364;8.944;2023-01-04T09:23:31;12.63;;;6.95;;
29352;SDS011;16344;50.364;8.944;2023-01-04T09:25:58;21.00;;;8.35;;
29352;SDS011;16344;50.364;8.944;2023-01-04T09:28:23;17.33;;;7.88;;
29352;SDS011;16344;50.364;8.944;2023-01-04T09:30:49;21.48;;;9.07;;
29352;SDS011;16344;50.364;8.944;2023-01-04T09:33:15;16.15;;;7.82;;
29352;SDS011;16344;50.364;8.944;2023-01-04T09:35:40;21.73;;;8.15;;
29352;SDS011;16344;50.364;8.944;2023-01-04T09:38:06;15.88;;;7.03;;
29352;SDS011;16344;50.364;8.944;2023-01-04T09:49:47;13.10;;;5.95;;
29352;SDS011;16344;50.364;8.944;2023-01-04T09:51:54;16.00;;;7.07;;
29352;SDS011;16344;50.364;8.944;2023-01-04T09:54:50;14.55;;;6.80;;
29352;SDS011;16344;50.364;8.944;2023-01-04T09:57:26;12.57;;;6.68;;
29352;SDS011;16344;50.364;8.944;2023-01-04T10:00:00;12.63;;;6.13;;
29352;SDS011;16344;50.364;8.944;2023-01-04T10:02:41;11.88;;;6.07;;
29352;SDS011;16344;50.364;8.944;2023-01-04T10:05:21;15.00;;;6.22;;
29352;SDS011;16344;50.364;8.944;2023-01-04T10:07:50;17.35;;;6.70;;
29352;SDS011;16344;50.364;8.944;2023-01-04T10:10:17;19.77;;;7.38;;
29352;SDS011;16344;50.364;8.944;2023-01-04T10:18:43;21.90;;;6.70;;
29352;SDS011;16344;50.364;8.944;2023-01-04T10:27:13;8.20;;;4.95;;
29352;SDS011;16344;50.364;8.944;2023-01-04T10:32:37;12.95;;;6.43;;
29352;SDS011;16344;50.364;8.944;2023-01-04T10:35:22;15.18;;;6.05;;
29352;SDS011;16344;50.364;8.944;2023-01-04T10:37:50;21.17;;;5.78;;
29352;SDS011;16344;50.364;8.944;2023-01-04T10:40:20;15.15;;;4.85;;
29352;SDS011;16344;50.364;8.944;2023-01-04T10:42:49;12.65;;;5.53;;
29352;SDS011;16344;50.364;8.944;2023-01-04T10:51:08;14.55;;;5.75;;
29352;SDS011;16344;50.364;8.944;2023-01-04T10:53:43;11.57;;;5.30;;
29352;SDS011;16344;50.364;8.944;2023-01-04T10:56:21;8.52;;;4.38;;
29352;SDS011;16344;50.364;8.944;2023-01-04T11:01:38;9.40;;;5.13;;
29352;SDS011;16344;50.364;8.944;2023-01-04T11:04:20;13.05;;;5.25;;
29352;SDS011;16344;50.364;8.944;2023-01-04T11:06:52;10.43;;;4.63;;
29352;SDS011;16344;50.364;8.944;2023-01-04T11:09:20;9.75;;;4.95;;
29352;SDS011;16344;50.364;8.944;2023-01-04T11:11:49;10.75;;;5.05;;
29352;SDS011;16344;50.364;8.944;2023-01-04T11:14:17;11.70;;;4.93;;
29352;SDS011;16344;50.364;8.944;2023-01-04T11:16:43;7.97;;;4.45;;
29352;SDS011;16344;50.364;8.944;2023-01-04T11:19:12;11.27;;;6.43;;
29352;SDS011;16344;50.364;8.944;2023-01-04T11:24:49;8.68;;;4.78;;
29352;SDS011;16344;50.364;8.944;2023-01-04T11:27:24;12.55;;;5.72;;
29352;SDS011;16344;50.364;8.944;2023-01-04T11:29:59;14.95;;;5.72;;
29352;SDS011;16344;50.364;8.944;2023-01-04T11:32:41;11.07;;;4.63;;
29352;SDS011;16344;50.364;8.944;2023-01-04T11:35:13;13.60;;;5.40;;
29352;SDS011;16344;50.364;8.944;2023-01-04T11:37:39;6.38;;;4.38;;
29352;SDS011;16344;50.364;8.944;2023-01-04T11:40:22;10.15;;;4.57;;
29352;SDS011;16344;50.364;8.944;2023-01-04T11:45:17;9.95;;;4.28;;
29352;SDS011;16344;50.364;8.944;2023-01-04T11:47:47;12.40;;;4.45;;
29352;SDS011;16344;50.364;8.944;2023-01-04T11:50:33;7.93;;;4.50;;
29352;SDS011;16344;50.364;8.944;2023-01-04T11:53:02;9.07;;;4.05;;
29352;SDS011;16344;50.364;8.944;2023-01-04T11:55:51;13.98;;;3.53;;
29352;SDS011;16344;50.364;8.944;2023-01-04T11:58:34;14.43;;;4.78;;
29352;SDS011;16344;50.364;8.944;2023-01-04T12:01:00;6.28;;;3.97;;
29352;SDS011;16344;50.364;8.944;2023-01-04T12:05:56;8.85;;;4.10;;
29352;SDS011;16344;50.364;8.944;2023-01-04T12:10:59;9.95;;;4.30;;
29352;SDS011;16344;50.364;8.944;2023-01-04T12:13:27;12.80;;;4.82;;
29352;SDS011;16344;50.364;8.944;2023-01-04T12:16:04;9.43;;;3.92;;
29352;SDS011;16344;50.364;8.944;2023-01-04T12:18:35;7.57;;;3.80;;
29352;SDS011;16344;50.364;8.944;2023-01-04T12:21:03;10.52;;;4.25;;
29352;SDS011;16344;50.364;8.944;2023-01-04T12:23:29;12.10;;;4.72;;
29352;SDS011;16344;50.364;8.944;2023-01-04T12:25:55;7.43;;;3.80;;
29352;SDS011;16344;50.364;8.944;2023-01-04T12:31:25;8.95;;;4.28;;
29352;SDS011;16344;50.364;8.944;2023-01-04T12:33:50;11.70;;;4.10;;
29352;SDS011;16344;50.364;8.944;2023-01-04T12:36:19;10.55;;;3.90;;
29352;SDS011;16344;50.364;8.944;2023-01-04T12:44:00;8.55;;;3.90;;
29352;SDS011;16344;50.364;8.944;2023-01-04T12:54:48;13.23;;;4.35;;
29352;SDS011;16344;50.364;8.944;2023-01-04T13:02:39;10.98;;;4.18;;
29352;SDS011;16344;50.364;8.944;2023-01-04T13:07:47;13.43;;;4.80;;
29352;SDS011;16344;50.364;8.944;2023-01-04T13:21:46;9.32;;;4.82;;
29352;SDS011;16344;50.364;8.944;2023-01-04T13:26:51;7.03;;;4.85;;
29352;SDS011;16344;50.364;8.944;2023-01-04T13:29:24;12.25;;;5.18;;
29352;SDS011;16344;50.364;8.944;2023-01-04T13:37:19;12.68;;;5.10;;
29352;SDS011;16344;50.364;8.944;2023-01-04T13:39:59;11.90;;;5.38;;
29352;SDS011;16344;50.364;8.944;2023-01-04T13:42:45;8.32;;;4.53;;
29352;SDS011;16344;50.364;8.944;2023-01-04T13:45:29;8.70;;;4.55;;
29352;SDS011;16344;50.364;8.944;2023-01-04T13:48:04;16.17;;;5.57;;
29352;SDS011;16344;50.364;8.944;2023-01-04T13:50:38;13.27;;;7.00;;
29352;SDS011;16344;50.364;8.944;2023-01-04T13:53:21;15.35;;;7.80;;
29352;SDS011;16344;50.364;8.944;2023-01-04T13:55:48;18.27;;;8.82;;
29352;SDS011;16344;50.364;8.944;2023-01-04T13:58:17;11.95;;;7.63;;
29352;SDS011;16344;50.364;8.944;2023-01-04T14:00:47;14.05;;;8.43;;
29352;SDS011;16344;50.364;8.944;2023-01-04T14:08:36;11.45;;;6.25;;
29352;SDS011;16344;50.364;8.944;2023-01-04T14:11:11;14.68;;;6.85;;
29352;SDS011;16344;50.364;8.944;2023-01-04T14:14:21;13.07;;;6.10;;
29352;SDS011;16344;50.364;8.944;2023-01-04T14:17:03;10.82;;;5.25;;
29352;SDS011;16344;50.364;8.944;2023-01-04T14:24:47;12.23;;;6.63;;
29352;SDS011;16344;50.364;8.944;2023-01-04T14:33:01;12.88;;;6.13;;
29352;SDS011;16344;50.364;8.944;2023-01-04T14:38:28;10.70;;;4.72;;
29352;SDS011;16344;50.364;8.944;2023-01-04T14:40:54;15.95;;;6.55;;
29352;SDS011;16344;50.364;8.944;2023-01-04T14:43:32;11.05;;;4.85;;
29352;SDS011;16344;50.364;8.944;2023-01-04T14:46:00;10.32;;;5.40;;
29352;SDS011;16344;50.364;8.944;2023-01-04T14:48:27;12.32;;;5.25;;
29352;SDS011;16344;50.364;8.944;2023-01-04T14:50:53;8.15;;;4.50;;
29352;SDS011;16344;50.364;8.944;2023-01-04T14:53:19;15.10;;;4.78;;
29352;SDS011;16344;50.364;8.944;2023-01-04T14:55:45;9.65;;;4.30;;
29352;SDS011;16344;50.364;8.944;2023-01-04T14:58:11;9.43;;;4.40;;
29352;SDS011;16344;50.364;8.944;2023-01-04T15:00:36;9.00;;;6.05;;
29352;SDS011;16344;50.364;8.944;2023-01-04T15:03:02;5.50;;;3.50;;
29352;SDS011;16344;50.364;8.944;2023-01-04T15:05:27;8.88;;;3.67;;
29352;SDS011;16344;50.364;8.944;2023-01-04T15:07:53;8.25;;;3.67;;
29352;SDS011;16344;50.364;8.944;2023-01-04T15:10:23;4.63;;;2.92;;
29352;SDS011;16344;50.364;8.944;2023-01-04T15:12:53;4.15;;;2.78;;
29352;SDS011;16344;50.364;8.944;2023-01-04T15:15:20;6.18;;;2.97;;
29352;SDS011;16344;50.364;8.944;2023-01-04T15:17:45;6.72;;;2.53;;
29352;SDS011;16344;50.364;8.944;2023-01-04T15:20:11;8.32;;;2.38;;
29352;SDS011;16344;50.364;8.944;2023-01-04T15:22:38;5.28;;;2.78;;
29352;SDS011;16344;50.364;8.944;2023-01-04T15:25:04;5.50;;;2.55;;
29352;SDS011;16344;50.364;8.944;2023-01-04T15:27:30;9.07;;;3.05;;
29352;SDS011;16344;50.364;8.944;2023-01-04T15:29:56;5.90;;;3.28;;
29352;SDS011;16344;50.364;8.944;2023-01-04T15:32:21;4.75;;;3.22;;
29352;SDS011;16344;50.364;8.944;2023-01-04T15:34:47;8.48;;;3.08;;
29352;SDS011;16344;50.364;8.944;2023-01-04T15:37:13;4.70;;;3.33;;
29352;SDS011;16344;50.364;8.944;2023-01-04T15:39:39;9.80;;;2.92;;
29352;SDS011;16344;50.364;8.944;2023-01-04T15:42:05;11.90;;;3.25;;
29352;SDS011;16344;50.364;8.944;2023-01-04T15:44:49;7.53;;;3.22;;
29352;SDS011;16344;50.364;8.944;2023-01-04T15:47:14;17.85;;;3.05;;
29352;SDS011;16344;50.364;8.944;2023-01-04T15:49:40;7.32;;;3.03;;
29352;SDS011;16344;50.364;8.944;2023-01-04T15:52:05;5.35;;;2.95;;
29352;SDS011;16344;50.364;8.944;2023-01-04T15:54:31;5.70;;;2.40;;
29352;SDS011;16344;50.364;8.944;2023-01-04T15:56:57;3.75;;;2.60;;
29352;SDS011;16344;50.364;8.944;2023-01-04T15:59:22;4.47;;;2.67;;
29352;SDS011;16344;50.364;8.944;2023-01-04T16:01:48;10.70;;;1.90;;
29352;SDS011;16344;50.364;8.944;2023-01-04T16:04:14;5.28;;;2.42;;
29352;SDS011;16344;50.364;8.944;2023-01-04T16:06:40;9.48;;;2.30;;
29352;SDS011;16344;50.364;8.944;2023-01-04T16:09:05;7.38;;;2.45;;
29352;SDS011;16344;50.364;8.944;2023-01-04T16:11:32;11.00;;;2.65;;
29352;SDS011;16344;50.364;8.944;2023-01-04T16:13:58;16.55;;;4.68;;
29352;SDS011;16344;50.364;8.944;2023-01-04T16:16:24;8.38;;;5.05;;
29352;SDS011;16344;50.364;8.944;2023-01-04T16:18:54;3.78;;;2.10;;
29352;SDS011;16344;50.364;8.944;2023-01-04T16:21:25;4.53;;;2.25;;
29352;SDS011;16344;50.364;8.944;2023-01-04T16:23:53;2.25;;;1.90;;
29352;SDS011;16344;50.364;8.944;2023-01-04T16:26:20;4.00;;;2.30;;
29352;SDS011;16344;50.364;8.944;2023-01-04T16:28:49;2.42;;;1.95;;
29352;SDS011;16344;50.364;8.944;2023-01-04T16:31:16;3.58;;;1.90;;
29352;SDS011;16344;50.364;8.944;2023-01-04T16:33:42;2.00;;;1.70;;
29352;SDS011;16344;50.364;8.944;2023-01-04T16:36:11;5.35;;;1.98;;
29352;SDS011;16344;50.364;8.944;2023-01-04T16:38:38;4.22;;;2.20;;
29352;SDS011;16344;50.364;8.944;2023-01-04T16:41:05;3.80;;;2.30;;
29352;SDS011;16344;50.364;8.944;2023-01-04T16:43:34;1.70;;;1.25;;
29352;SDS011;16344;50.364;8.944;2023-01-04T16:48:36;3.40;;;1.52;;
29352;SDS011;16344;50.364;8.944;2023-01-04T16:51:05;1.77;;;1.40;;
29352;SDS011;16344;50.364;8.944;2023-01-04T16:53:30;2.33;;;1.75;;
29352;SDS011;16344;50.364;8.944;2023-01-04T16:55:56;2.88;;;2.08;;
29352;SDS011;16344;50.364;8.944;2023-01-04T16:58:21;1.60;;;1.42;;
29352;SDS011;16344;50.364;8.944;2023-01-04T17:00:47;1.42;;;1.17;;